Carnival Destiny — C6FN4 — position and weather

sailwx.info

Track history (hours):
 
Tides and Currents Weather Stations Pressure Air Temp Water Temp Dewpoint Dewpoint Depression Visibility Wind Speed Wind Dir Waves Ship Positions

Carnival Destiny

Operator: Carnival Cruise Lines

Last reported at 2017-Sep-19 23:09 UTC. Time now 2017-Sep-20 00:34 UTC.
Position N 43°27' W 069°49'.

Type: Passenger vessel. MMSI: 308017000.

Date/timePositionNaut miles runAvg speedWind from/ knotsBaromVisibWave heightAir tempDewpointWater temp
2017-Sep-19 23:09N 43°27' W 069°49'19 1.5
2017-Sep-19 10:10N 43°37' W 070°11'812.6
2017-Sep-19 09:33N 43°31' W 070°04'2 8.8
2017-Sep-19 09:17N 43°29' W 070°02'15 9.2
2017-Sep-19 07:36N 43°15' W 069°56'4 9.4
2017-Sep-19 07:13N 43°11' W 069°54'2 9.4
2017-Sep-19 06:59N 43°09' W 069°53'8 9.4
2017-Sep-19 06:08N 43°01' W 069°50'2 9.1
2017-Sep-19 05:58N 42°60' W 069°50'4 9.2
2017-Sep-19 05:30N 42°56' W 069°48'5 9.5
2017-Sep-19 05:01N 42°52' W 069°44'3 6.8
2017-Sep-19 04:30N 42°49' W 069°46'5 9.4
2017-Sep-19 03:59N 42°52' W 069°51'4 8.2
2017-Sep-19 03:31N 42°52' W 069°57'5 9.5
2017-Sep-19 03:01N 42°49' W 070°02'2109.2
2017-Sep-19 03:00N 42°48' W 070°00'611.8 090 / 161022.0 0.0 17.017.016.5
2017-Sep-19 02:30N 42°46' W 070°08'5 9.5
2017-Sep-19 02:00N 42°44' W 070°13'5 9.5
2017-Sep-19 01:30N 42°41' W 070°18'5 9.6
2017-Sep-19 01:00N 42°38' W 070°24'5 9.5
2017-Sep-19 00:30N 42°36' W 070°29'5 9.5
2017-Sep-19 00:01N 42°33' W 070°34'5 9.5
2017-Sep-18 23:30N 42°30' W 070°39'5 9.4
2017-Sep-18 23:01N 42°27' W 070°44'5 9.4
2017-Sep-18 22:30N 42°25' W 070°50'510.1
2017-Sep-18 22:00N 42°22' W 070°55'4 8.5
2017-Sep-18 21:31N 42°21' W 071°01'1 1.8
2017-Sep-18 21:00N 42°21' W 071°02'0 0.0
2017-Sep-18 20:30N 42°21' W 071°02'0 0.0
2017-Sep-18 20:00N 42°21' W 071°02'0 0.0
2017-Sep-18 19:30N 42°21' W 071°02'0 0.0
2017-Sep-18 19:00N 42°21' W 071°02'0 0.0
2017-Sep-18 18:30N 42°21' W 071°02'0 0.0
2017-Sep-18 18:00N 42°21' W 071°02'0 0.0
2017-Sep-18 17:30N 42°21' W 071°02'0 0.0
2017-Sep-18 17:00N 42°21' W 071°02'0 0.0
2017-Sep-18 16:30N 42°21' W 071°02'0 0.0
2017-Sep-18 16:00N 42°21' W 071°02'0 0.0
2017-Sep-18 15:30N 42°21' W 071°02'0 0.0
2017-Sep-18 15:00N 42°21' W 071°02'0 0.0
2017-Sep-18 14:30N 42°21' W 071°02'0 0.0
2017-Sep-18 14:00N 42°21' W 071°02'0 0.0
2017-Sep-18 13:30N 42°21' W 071°02'0 0.0
2017-Sep-18 13:00N 42°21' W 071°02'0 0.0
2017-Sep-18 12:30N 42°21' W 071°02'0 0.0
2017-Sep-18 12:00N 42°21' W 071°02'0 0.6
2017-Sep-18 11:30N 42°21' W 071°02'3 5.6
2017-Sep-18 11:00N 42°20' W 070°58'611.7
2017-Sep-18 10:30N 42°24' W 070°52'4 9.0
2017-Sep-18 10:00N 42°24' W 070°46'5 9.3
2017-Sep-18 09:30N 42°22' W 070°40'5 9.4
2017-Sep-18 09:00N 42°22' W 070°33'510.1
2017-Sep-18 08:30N 42°21' W 070°27'5 9.9
2017-Sep-18 08:00N 42°21' W 070°20'5 9.9
2017-Sep-18 07:30N 42°20' W 070°13'5 9.6
2017-Sep-18 07:00N 42°20' W 070°07'5 9.7
2017-Sep-18 06:30N 42°19' W 070°00'916.9
2017-Sep-18 06:00N 42°12' W 069°54'4103.6 120 / 81018.0 2.2 17.017.016.0
2017-Sep-18 05:57N 42°15' W 069°57'5 9.6
2017-Sep-18 05:29N 42°11' W 069°54'510.4
2017-Sep-18 05:00N 42°06' W 069°51'5 9.8
2017-Sep-18 04:27N 42°02' W 069°48'5 9.6
2017-Sep-18 03:58N 41°57' W 069°45'510.6
2017-Sep-18 03:30N 41°53' W 069°42'510.3
2017-Sep-18 03:00N 41°48' W 069°39'6 9.7
2017-Sep-18 02:20N 41°43' W 069°34'4 9.8
2017-Sep-18 01:57N 41°39' W 069°32'1111.7
2017-Sep-18 01:00N 41°30' W 069°24'6811.4 100 / 91021.0 0.3 17.015.317.0
2017-Sep-17 19:00N 40°24' W 069°00'4110.3 100 / 101020.0 0.0 19.019.018.0
2017-Sep-17 15:00N 40°24' W 069°54'8610.9 060 / 121021.0 0.1 19.019.020.0
2017-Sep-17 07:04N 40°23' W 071°47'110.8
2017-Sep-17 07:00N 40°23' W 071°48'610.8
2017-Sep-17 06:28N 40°23' W 071°56'510.7
2017-Sep-17 06:00N 40°23' W 072°02'610.8
2017-Sep-17 05:29N 40°23' W 072°10'510.8
2017-Sep-17 05:00N 40°23' W 072°16'510.7
2017-Sep-17 04:30N 40°22' W 072°23'510.6
2017-Sep-17 04:01N 40°22' W 072°30'510.6
2017-Sep-17 03:30N 40°22' W 072°37'510.5
2017-Sep-17 03:00N 40°22' W 072°44'5564.5
2017-Sep-17 03:00N 40°18' W 072°48'4 8.7 130 / 101021.0 0.3 19.019.021.0
2017-Sep-17 02:30N 40°22' W 072°51'510.9
2017-Sep-17 02:01N 40°21' W 072°58'611.0
2017-Sep-17 01:30N 40°21' W 073°05'611.1
2017-Sep-17 01:00N 40°21' W 073°13'510.8
2017-Sep-17 00:30N 40°22' W 073°20'611.1
2017-Sep-17 00:00N 40°23' W 073°27'511.1
2017-Sep-16 23:30N 40°24' W 073°34'611.1
2017-Sep-16 23:00N 40°26' W 073°41'510.3
2017-Sep-16 22:30N 40°27' W 073°48'613.1
2017-Sep-16 22:00N 40°29' W 073°55'713.8
2017-Sep-16 21:30N 40°34' W 074°02'612.4
2017-Sep-16 21:00N 40°40' W 074°03'611.2
2017-Sep-16 20:30N 40°46' W 074°01'1 1.3
2017-Sep-16 20:00N 40°46' W 073°60'0 0.0
2017-Sep-16 19:21N 40°46' W 073°60'0 0.0
2017-Sep-16 18:57N 40°46' W 073°60'0 0.0
2017-Sep-16 18:27N 40°46' W 073°60'0 0.0
2017-Sep-16 17:57N 40°46' W 073°60'0 0.0
2017-Sep-16 17:27N 40°46' W 073°60'0 0.0
2017-Sep-16 16:57N 40°46' W 073°60'0 0.0
2017-Sep-16 16:27N 40°46' W 073°60'0 0.0
2017-Sep-16 15:57N 40°46' W 073°60'0 0.0
2017-Sep-16 15:27N 40°46' W 073°60'0 0.0
2017-Sep-16 14:57N 40°46' W 073°60'0 0.0
2017-Sep-16 14:27N 40°46' W 073°60'0 0.0
2017-Sep-16 13:57N 40°46' W 073°60'0 0.0
2017-Sep-16 13:27N 40°46' W 073°60'0 0.0
2017-Sep-16 12:57N 40°46' W 073°60'0 0.0
2017-Sep-16 12:27N 40°46' W 073°60'0 0.0
2017-Sep-16 11:57N 40°46' W 073°60'0 0.0
2017-Sep-16 11:27N 40°46' W 073°60'0 0.1
2017-Sep-16 11:00N 40°46' W 073°60'1 3.0
2017-Sep-16 10:30N 40°45' W 074°01'611.2
2017-Sep-16 10:00N 40°39' W 074°03'714.8
2017-Sep-16 09:30N 40°32' W 074°01'815.6
2017-Sep-16 09:00N 40°28' W 073°52'611.1
2017-Sep-16 08:30N 40°27' W 073°45'917.1
2017-Sep-16 08:00N 40°28' W 073°34'917.2
2017-Sep-16 07:30N 40°28' W 073°23'917.4
2017-Sep-16 07:00N 40°28' W 073°11'817.0
2017-Sep-16 06:30N 40°29' W 073°00'917.1
2017-Sep-16 06:00N 40°30' W 072°49'917.4
2017-Sep-16 05:30N 40°30' W 072°37'917.3
2017-Sep-16 05:00N 40°30' W 072°26'917.6
2017-Sep-16 04:30N 40°30' W 072°14'917.6
2017-Sep-16 04:00N 40°31' W 072°03'1717.4
2017-Sep-16 03:01N 40°31' W 071°40'017.1
2017-Sep-16 03:00N 40°31' W 071°40'1716.7
2017-Sep-16 02:00N 40°30' W 071°18'11416.3 190 / 121020.0 20.018.418.0
2017-Sep-15 19:00N 40°36' W 068°48'15216.9 200 / 221018.0 5.4 21.017.816.0
2017-Sep-15 10:00N 41°54' W 065°54'14117.7 240 / 221006.010.8 19.015.719.0
2017-Sep-15 02:00N 43°48' W 064°00'53 6.6 270 / 201003.0 16.016.015.0
2017-Sep-14 18:00N 44°36' W 063°30'104 9.5 220 / 161009.0 5.4 21.017.812.0
2017-Sep-14 07:00N 43°18' W 065°06'7214.4 270 / 151010.0 5.4 12.0 7.9 8.0
2017-Sep-14 02:00N 43°48' W 066°36'24 1.3 240 / 221009.010.8 16.012.411.0
2017-Sep-13 07:00N 44°12' W 066°42'8218.9 030 / 301006.0 5.4 14.010.213.4
2017-Sep-13 02:41N 43°36' W 068°24'519.1
2017-Sep-13 02:26N 43°35' W 068°30'1431.4
2017-Sep-13 02:00N 43°30' W 068°48'51961.6 300 / 201009.010.8 20.014.914.5
2017-Sep-13 01:59N 43°32' W 068°41'2118.9
2017-Sep-13 00:53N 43°27' W 069°09'719.0
2017-Sep-13 00:30N 43°25' W 069°19'1019.0
2017-Sep-12 23:58N 43°23' W 069°32'918.9
2017-Sep-12 23:30N 43°25' W 069°44'917.5
2017-Sep-12 23:00N 43°28' W 069°55'816.3
2017-Sep-12 22:30N 43°31' W 070°06'714.3
2017-Sep-12 22:01N 43°37' W 070°11'4 7.1
2017-Sep-12 21:30N 43°39' W 070°15'0 0.1
2017-Sep-12 20:58N 43°40' W 070°15'0 0.0
2017-Sep-12 20:28N 43°40' W 070°15'0 0.0
2017-Sep-12 19:58N 43°40' W 070°15'0 0.0
2017-Sep-12 19:28N 43°40' W 070°15'0 0.0
2017-Sep-12 18:58N 43°40' W 070°15'0 0.0
2017-Sep-12 18:28N 43°40' W 070°15'0 0.0
2017-Sep-12 17:58N 43°40' W 070°15'0 0.0
2017-Sep-12 17:28N 43°40' W 070°15'4 8.4
2017-Sep-12 17:00N 43°36' W 070°12'4219.5 190 / 151012.0 5.4 17.013.5
2017-Sep-12 16:58N 43°40' W 070°15'0 0.0
2017-Sep-12 16:28N 43°40' W 070°15'0 0.0
2017-Sep-12 15:58N 43°40' W 070°15'0 0.0
2017-Sep-12 15:28N 43°40' W 070°15'0 0.0
2017-Sep-12 14:58N 43°40' W 070°15'0 0.0
2017-Sep-12 14:28N 43°40' W 070°15'0 0.0
2017-Sep-12 13:58N 43°40' W 070°15'0 0.0
2017-Sep-12 13:28N 43°40' W 070°15'0 0.0
2017-Sep-12 12:58N 43°40' W 070°15'0 0.0
2017-Sep-12 12:28N 43°40' W 070°15'0 0.0
2017-Sep-12 11:58N 43°40' W 070°15'0 0.0
2017-Sep-12 11:28N 43°40' W 070°15'0 0.0
2017-Sep-12 10:58N 43°40' W 070°15'0 0.0
2017-Sep-12 10:30N 43°40' W 070°15'2 3.2
2017-Sep-12 10:00N 43°39' W 070°13'612.9
2017-Sep-12 09:30N 43°33' W 070°08'611.0
2017-Sep-12 09:00N 43°29' W 070°02'5 9.2
2017-Sep-12 08:30N 43°25' W 070°00'4 9.0
2017-Sep-12 08:00N 43°21' W 069°58'4 8.8
2017-Sep-12 07:30N 43°17' W 069°57'4 8.7
2017-Sep-12 07:00N 43°12' W 069°55'4 8.4
2017-Sep-12 06:30N 43°08' W 069°53'4 8.6
2017-Sep-12 06:00N 43°04' W 069°51'4 8.7
2017-Sep-12 05:30N 43°00' W 069°49'4 8.6
2017-Sep-12 05:00N 42°56' W 069°47'2144.4
2017-Sep-12 05:00N 42°54' W 069°48'2 3.3 360 / 121016.0 5.4 19.013.815.0
2017-Sep-12 04:30N 42°53' W 069°49'510.0
2017-Sep-12 04:00N 42°52' W 069°56'3 5.6
2017-Sep-12 03:30N 42°55' W 069°56'4 7.2
2017-Sep-12 03:00N 42°51' W 069°58'4419.6
2017-Sep-12 03:00N 42°54' W 069°54'918.7 320 / 141018.010.8 19.015.715.0
2017-Sep-12 02:30N 42°48' W 070°04'510.4
2017-Sep-12 02:00N 42°45' W 070°09'510.3
2017-Sep-12 01:30N 42°42' W 070°15'510.7
2017-Sep-12 01:00N 42°39' W 070°21'511.0
2017-Sep-12 00:30N 42°36' W 070°27'510.9
2017-Sep-12 00:00N 42°33' W 070°33'510.6
2017-Sep-11 23:30N 42°30' W 070°39'510.8
2017-Sep-11 23:00N 42°26' W 070°45'510.5
2017-Sep-11 22:30N 42°24' W 070°51'510.1
2017-Sep-11 22:00N 42°21' W 070°56'4 7.5
2017-Sep-11 21:30N 42°21' W 071°01'1 1.0
2017-Sep-11 20:56N 42°21' W 071°02'0 0.0
2017-Sep-11 20:26N 42°21' W 071°02'0 0.0
2017-Sep-11 19:56N 42°21' W 071°02'0 0.0
2017-Sep-11 19:26N 42°21' W 071°02'3 6.8
2017-Sep-11 19:00N 42°18' W 071°00'347.8 300 / 21025.010.8 22.018.9
2017-Sep-11 18:56N 42°21' W 071°02'0 0.0
2017-Sep-11 18:26N 42°21' W 071°02'0 0.0
2017-Sep-11 17:56N 42°21' W 071°02'0 0.0
2017-Sep-11 17:26N 42°21' W 071°02'0 0.0
2017-Sep-11 16:56N 42°21' W 071°02'0 0.0
2017-Sep-11 16:26N 42°21' W 071°02'0 0.0
2017-Sep-11 15:56N 42°21' W 071°02'0 0.0
2017-Sep-11 15:26N 42°21' W 071°02'0 0.0
2017-Sep-11 14:56N 42°21' W 071°02'0 0.0
2017-Sep-11 14:26N 42°21' W 071°02'0 0.0
2017-Sep-11 13:56N 42°21' W 071°02'0 0.0
2017-Sep-11 13:26N 42°21' W 071°02'0 0.0
2017-Sep-11 12:56N 42°21' W 071°02'0 0.0
2017-Sep-11 12:26N 42°21' W 071°02'0 0.0
2017-Sep-11 11:56N 42°21' W 071°02'0 0.5
2017-Sep-11 11:30N 42°21' W 071°02'3 5.1
2017-Sep-11 11:00N 42°20' W 070°58'612.1
2017-Sep-11 10:30N 42°24' W 070°52'510.4
2017-Sep-11 10:00N 42°23' W 070°45'510.0
2017-Sep-11 09:30N 42°22' W 070°38'510.4
2017-Sep-11 09:01N 42°22' W 070°31'611.2
2017-Sep-11 08:31N 42°21' W 070°24'510.4
2017-Sep-11 08:01N 42°21' W 070°17'510.4
2017-Sep-11 07:31N 42°20' W 070°10'611.4
2017-Sep-11 07:00N 42°20' W 070°02'510.4
2017-Sep-11 06:30N 42°16' W 069°57'611.1
2017-Sep-11 06:00N 42°11' W 069°54'510.6
2017-Sep-11 05:30N 42°06' W 069°51'610.9
2017-Sep-11 04:56N 42°01' W 069°47'510.7
2017-Sep-11 04:30N 41°56' W 069°44'1111.9
2017-Sep-11 03:36N 41°47' W 069°37'112.6
2017-Sep-11 03:30N 41°46' W 069°37'612.6
2017-Sep-11 03:00N 41°40' W 069°33'2512.3
2017-Sep-11 01:00N 41°18' W 069°18'59 7.3 350 / 121025.010.8 16.010.415.0
2017-Sep-10 17:00N 40°24' W 069°48'12412.4 360 / 361025.0 5.4 19.013.816.0
2017-Sep-10 07:00N 40°18' W 072°30'4915.3 030 / 281024.0 5.4 17.011.519.0
2017-Sep-10 03:47N 40°24' W 073°34'513.2
2017-Sep-10 03:26N 40°25' W 073°40'613.4
2017-Sep-10 03:00N 40°26' W 073°47'713.5
2017-Sep-10 02:30N 40°29' W 073°55'713.8
2017-Sep-10 02:00N 40°34' W 074°02'713.9
2017-Sep-10 01:30N 40°41' W 074°02'511.0
2017-Sep-10 01:00N 40°46' W 074°00'0 0.8
2017-Sep-10 00:30N 40°46' W 073°60'0 0.0
2017-Sep-10 00:00N 40°46' W 073°60'0 0.0
2017-Sep-09 23:30N 40°46' W 073°60'  
Track history (hours):
 
Tides and Currents Weather Stations Pressure Air Temp Water Temp Dewpoint Dewpoint Depression Visibility Wind Speed Wind Dir Waves Ship Positions

Carnival Destiny

Operator: Carnival Cruise Lines

Last reported at 2017-Sep-19 23:09 UTC. Time now 2017-Sep-20 00:34 UTC.
Position N 43°27' W 069°49'.

Type: Passenger vessel. MMSI: 308017000.

Date/timePositionNaut miles runAvg speedWind from/ knotsBaromVisibWave heightAir tempDewpointWater temp
2017-Sep-19 23:09N 43°27' W 069°49'19 1.5
2017-Sep-19 10:10N 43°37' W 070°11'812.6
2017-Sep-19 09:33N 43°31' W 070°04'2 8.8
2017-Sep-19 09:17N 43°29' W 070°02'15 9.2
2017-Sep-19 07:36N 43°15' W 069°56'4 9.4
2017-Sep-19 07:13N 43°11' W 069°54'2 9.4
2017-Sep-19 06:59N 43°09' W 069°53'8 9.4
2017-Sep-19 06:08N 43°01' W 069°50'2 9.1
2017-Sep-19 05:58N 42°60' W 069°50'4 9.2
2017-Sep-19 05:30N 42°56' W 069°48'5 9.5
2017-Sep-19 05:01N 42°52' W 069°44'3 6.8
2017-Sep-19 04:30N 42°49' W 069°46'5 9.4
2017-Sep-19 03:59N 42°52' W 069°51'4 8.2
2017-Sep-19 03:31N 42°52' W 069°57'5 9.5
2017-Sep-19 03:01N 42°49' W 070°02'2109.2
2017-Sep-19 03:00N 42°48' W 070°00'611.8 090 / 161022.0 0.0 17.017.016.5
2017-Sep-19 02:30N 42°46' W 070°08'5 9.5
2017-Sep-19 02:00N 42°44' W 070°13'5 9.5
2017-Sep-19 01:30N 42°41' W 070°18'5 9.6
2017-Sep-19 01:00N 42°38' W 070°24'5 9.5
2017-Sep-19 00:30N 42°36' W 070°29'5 9.5
2017-Sep-19 00:01N 42°33' W 070°34'5 9.5
2017-Sep-18 23:30N 42°30' W 070°39'5 9.4
2017-Sep-18 23:01N 42°27' W 070°44'5 9.4
2017-Sep-18 22:30N 42°25' W 070°50'510.1
2017-Sep-18 22:00N 42°22' W 070°55'4 8.5
2017-Sep-18 21:31N 42°21' W 071°01'1 1.8
2017-Sep-18 21:00N 42°21' W 071°02'0 0.0
2017-Sep-18 20:30N 42°21' W 071°02'0 0.0
2017-Sep-18 20:00N 42°21' W 071°02'0 0.0
2017-Sep-18 19:30N 42°21' W 071°02'0 0.0
2017-Sep-18 19:00N 42°21' W 071°02'0 0.0
2017-Sep-18 18:30N 42°21' W 071°02'0 0.0
2017-Sep-18 18:00N 42°21' W 071°02'0 0.0
2017-Sep-18 17:30N 42°21' W 071°02'0 0.0
2017-Sep-18 17:00N 42°21' W 071°02'0 0.0
2017-Sep-18 16:30N 42°21' W 071°02'0 0.0
2017-Sep-18 16:00N 42°21' W 071°02'0 0.0
2017-Sep-18 15:30N 42°21' W 071°02'0 0.0
2017-Sep-18 15:00N 42°21' W 071°02'0 0.0
2017-Sep-18 14:30N 42°21' W 071°02'0 0.0
2017-Sep-18 14:00N 42°21' W 071°02'0 0.0
2017-Sep-18 13:30N 42°21' W 071°02'0 0.0
2017-Sep-18 13:00N 42°21' W 071°02'0 0.0
2017-Sep-18 12:30N 42°21' W 071°02'0 0.0
2017-Sep-18 12:00N 42°21' W 071°02'0 0.6
2017-Sep-18 11:30N 42°21' W 071°02'3 5.6
2017-Sep-18 11:00N 42°20' W 070°58'611.7
2017-Sep-18 10:30N 42°24' W 070°52'4 9.0
2017-Sep-18 10:00N 42°24' W 070°46'5 9.3
2017-Sep-18 09:30N 42°22' W 070°40'5 9.4
2017-Sep-18 09:00N 42°22' W 070°33'510.1
2017-Sep-18 08:30N 42°21' W 070°27'5 9.9
2017-Sep-18 08:00N 42°21' W 070°20'5 9.9
2017-Sep-18 07:30N 42°20' W 070°13'5 9.6
2017-Sep-18 07:00N 42°20' W 070°07'5 9.7
2017-Sep-18 06:30N 42°19' W 070°00'916.9
2017-Sep-18 06:00N 42°12' W 069°54'4103.6 120 / 81018.0 2.2 17.017.016.0
2017-Sep-18 05:57N 42°15' W 069°57'5 9.6
2017-Sep-18 05:29N 42°11' W 069°54'510.4
2017-Sep-18 05:00N 42°06' W 069°51'5 9.8
2017-Sep-18 04:27N 42°02' W 069°48'5 9.6
2017-Sep-18 03:58N 41°57' W 069°45'510.6
2017-Sep-18 03:30N 41°53' W 069°42'510.3
2017-Sep-18 03:00N 41°48' W 069°39'6 9.7
2017-Sep-18 02:20N 41°43' W 069°34'4 9.8
2017-Sep-18 01:57N 41°39' W 069°32'1111.7
2017-Sep-18 01:00N 41°30' W 069°24'6811.4 100 / 91021.0 0.3 17.015.317.0
2017-Sep-17 19:00N 40°24' W 069°00'4110.3 100 / 101020.0 0.0 19.019.018.0
2017-Sep-17 15:00N 40°24' W 069°54'8610.9 060 / 121021.0 0.1 19.019.020.0
2017-Sep-17 07:04N 40°23' W 071°47'110.8
2017-Sep-17 07:00N 40°23' W 071°48'610.8
2017-Sep-17 06:28N 40°23' W 071°56'510.7
2017-Sep-17 06:00N 40°23' W 072°02'610.8
2017-Sep-17 05:29N 40°23' W 072°10'510.8
2017-Sep-17 05:00N 40°23' W 072°16'510.7
2017-Sep-17 04:30N 40°22' W 072°23'510.6
2017-Sep-17 04:01N 40°22' W 072°30'510.6
2017-Sep-17 03:30N 40°22' W 072°37'510.5
2017-Sep-17 03:00N 40°22' W 072°44'5564.5
2017-Sep-17 03:00N 40°18' W 072°48'4 8.7 130 / 101021.0 0.3 19.019.021.0
2017-Sep-17 02:30N 40°22' W 072°51'510.9
2017-Sep-17 02:01N 40°21' W 072°58'611.0
2017-Sep-17 01:30N 40°21' W 073°05'611.1
2017-Sep-17 01:00N 40°21' W 073°13'510.8
2017-Sep-17 00:30N 40°22' W 073°20'611.1
2017-Sep-17 00:00N 40°23' W 073°27'511.1
2017-Sep-16 23:30N 40°24' W 073°34'611.1
2017-Sep-16 23:00N 40°26' W 073°41'510.3
2017-Sep-16 22:30N 40°27' W 073°48'613.1
2017-Sep-16 22:00N 40°29' W 073°55'713.8
2017-Sep-16 21:30N 40°34' W 074°02'612.4
2017-Sep-16 21:00N 40°40' W 074°03'611.2
2017-Sep-16 20:30N 40°46' W 074°01'1 1.3
2017-Sep-16 20:00N 40°46' W 073°60'0 0.0
2017-Sep-16 19:21N 40°46' W 073°60'0 0.0
2017-Sep-16 18:57N 40°46' W 073°60'0 0.0
2017-Sep-16 18:27N 40°46' W 073°60'0 0.0
2017-Sep-16 17:57N 40°46' W 073°60'0 0.0
2017-Sep-16 17:27N 40°46' W 073°60'0 0.0
2017-Sep-16 16:57N 40°46' W 073°60'0 0.0
2017-Sep-16 16:27N 40°46' W 073°60'0 0.0
2017-Sep-16 15:57N 40°46' W 073°60'0 0.0
2017-Sep-16 15:27N 40°46' W 073°60'0 0.0
2017-Sep-16 14:57N 40°46' W 073°60'0 0.0
2017-Sep-16 14:27N 40°46' W 073°60'0 0.0
2017-Sep-16 13:57N 40°46' W 073°60'0 0.0
2017-Sep-16 13:27N 40°46' W 073°60'0 0.0
2017-Sep-16 12:57N 40°46' W 073°60'0 0.0
2017-Sep-16 12:27N 40°46' W 073°60'0 0.0
2017-Sep-16 11:57N 40°46' W 073°60'0 0.0
2017-Sep-16 11:27N 40°46' W 073°60'0 0.1
2017-Sep-16 11:00N 40°46' W 073°60'1 3.0
2017-Sep-16 10:30N 40°45' W 074°01'611.2
2017-Sep-16 10:00N 40°39' W 074°03'714.8
2017-Sep-16 09:30N 40°32' W 074°01'815.6
2017-Sep-16 09:00N 40°28' W 073°52'611.1
2017-Sep-16 08:30N 40°27' W 073°45'917.1
2017-Sep-16 08:00N 40°28' W 073°34'917.2
2017-Sep-16 07:30N 40°28' W 073°23'917.4
2017-Sep-16 07:00N 40°28' W 073°11'817.0
2017-Sep-16 06:30N 40°29' W 073°00'917.1
2017-Sep-16 06:00N 40°30' W 072°49'917.4
2017-Sep-16 05:30N 40°30' W 072°37'917.3
2017-Sep-16 05:00N 40°30' W 072°26'917.6
2017-Sep-16 04:30N 40°30' W 072°14'917.6
2017-Sep-16 04:00N 40°31' W 072°03'1717.4
2017-Sep-16 03:01N 40°31' W 071°40'017.1
2017-Sep-16 03:00N 40°31' W 071°40'1716.7
2017-Sep-16 02:00N 40°30' W 071°18'11416.3 190 / 121020.0 20.018.418.0
2017-Sep-15 19:00N 40°36' W 068°48'15216.9 200 / 221018.0 5.4 21.017.816.0
2017-Sep-15 10:00N 41°54' W 065°54'14117.7 240 / 221006.010.8 19.015.719.0
2017-Sep-15 02:00N 43°48' W 064°00'53 6.6 270 / 201003.0 16.016.015.0
2017-Sep-14 18:00N 44°36' W 063°30'104 9.5 220 / 161009.0 5.4 21.017.812.0
2017-Sep-14 07:00N 43°18' W 065°06'7214.4 270 / 151010.0 5.4 12.0 7.9 8.0
2017-Sep-14 02:00N 43°48' W 066°36'24 1.3 240 / 221009.010.8 16.012.411.0
2017-Sep-13 07:00N 44°12' W 066°42'8218.9 030 / 301006.0 5.4 14.010.213.4
2017-Sep-13 02:41N 43°36' W 068°24'519.1
2017-Sep-13 02:26N 43°35' W 068°30'1431.4
2017-Sep-13 02:00N 43°30' W 068°48'51961.6 300 / 201009.010.8 20.014.914.5
2017-Sep-13 01:59N 43°32' W 068°41'2118.9
2017-Sep-13 00:53N 43°27' W 069°09'719.0
2017-Sep-13 00:30N 43°25' W 069°19'1019.0
2017-Sep-12 23:58N 43°23' W 069°32'918.9
2017-Sep-12 23:30N 43°25' W 069°44'917.5
2017-Sep-12 23:00N 43°28' W 069°55'816.3
2017-Sep-12 22:30N 43°31' W 070°06'714.3
2017-Sep-12 22:01N 43°37' W 070°11'4 7.1
2017-Sep-12 21:30N 43°39' W 070°15'0 0.1
2017-Sep-12 20:58N 43°40' W 070°15'0 0.0
2017-Sep-12 20:28N 43°40' W 070°15'0 0.0
2017-Sep-12 19:58N 43°40' W 070°15'0 0.0
2017-Sep-12 19:28N 43°40' W 070°15'0 0.0
2017-Sep-12 18:58N 43°40' W 070°15'0 0.0
2017-Sep-12 18:28N 43°40' W 070°15'0 0.0
2017-Sep-12 17:58N 43°40' W 070°15'0 0.0
2017-Sep-12 17:28N 43°40' W 070°15'4 8.4
2017-Sep-12 17:00N 43°36' W 070°12'4219.5 190 / 151012.0 5.4 17.013.5
2017-Sep-12 16:58N 43°40' W 070°15'0 0.0
2017-Sep-12 16:28N 43°40' W 070°15'0 0.0
2017-Sep-12 15:58N 43°40' W 070°15'0 0.0
2017-Sep-12 15:28N 43°40' W 070°15'0 0.0
2017-Sep-12 14:58N 43°40' W 070°15'0 0.0
2017-Sep-12 14:28N 43°40' W 070°15'0 0.0
2017-Sep-12 13:58N 43°40' W 070°15'0 0.0
2017-Sep-12 13:28N 43°40' W 070°15'0 0.0
2017-Sep-12 12:58N 43°40' W 070°15'0 0.0
2017-Sep-12 12:28N 43°40' W 070°15'0 0.0
2017-Sep-12 11:58N 43°40' W 070°15'0 0.0
2017-Sep-12 11:28N 43°40' W 070°15'0 0.0
2017-Sep-12 10:58N 43°40' W 070°15'0 0.0
2017-Sep-12 10:30N 43°40' W 070°15'2 3.2
2017-Sep-12 10:00N 43°39' W 070°13'612.9
2017-Sep-12 09:30N 43°33' W 070°08'611.0
2017-Sep-12 09:00N 43°29' W 070°02'5 9.2
2017-Sep-12 08:30N 43°25' W 070°00'4 9.0
2017-Sep-12 08:00N 43°21' W 069°58'4 8.8
2017-Sep-12 07:30N 43°17' W 069°57'4 8.7
2017-Sep-12 07:00N 43°12' W 069°55'4 8.4
2017-Sep-12 06:30N 43°08' W 069°53'4 8.6
2017-Sep-12 06:00N 43°04' W 069°51'4 8.7
2017-Sep-12 05:30N 43°00' W 069°49'4 8.6
2017-Sep-12 05:00N 42°56' W 069°47'2144.4
2017-Sep-12 05:00N 42°54' W 069°48'2 3.3 360 / 121016.0 5.4 19.013.815.0
2017-Sep-12 04:30N 42°53' W 069°49'510.0
2017-Sep-12 04:00N 42°52' W 069°56'3 5.6
2017-Sep-12 03:30N 42°55' W 069°56'4 7.2
2017-Sep-12 03:00N 42°51' W 069°58'4419.6
2017-Sep-12 03:00N 42°54' W 069°54'918.7 320 / 141018.010.8 19.015.715.0
2017-Sep-12 02:30N 42°48' W 070°04'510.4
2017-Sep-12 02:00N 42°45' W 070°09'510.3
2017-Sep-12 01:30N 42°42' W 070°15'510.7
2017-Sep-12 01:00N 42°39' W 070°21'511.0
2017-Sep-12 00:30N 42°36' W 070°27'510.9
2017-Sep-12 00:00N 42°33' W 070°33'510.6
2017-Sep-11 23:30N 42°30' W 070°39'510.8
2017-Sep-11 23:00N 42°26' W 070°45'510.5
2017-Sep-11 22:30N 42°24' W 070°51'510.1
2017-Sep-11 22:00N 42°21' W 070°56'4 7.5
2017-Sep-11 21:30N 42°21' W 071°01'1 1.0
2017-Sep-11 20:56N 42°21' W 071°02'0 0.0
2017-Sep-11 20:26N 42°21' W 071°02'0 0.0
2017-Sep-11 19:56N 42°21' W 071°02'0 0.0
2017-Sep-11 19:26N 42°21' W 071°02'3 6.8
2017-Sep-11 19:00N 42°18' W 071°00'347.8 300 / 21025.010.8 22.018.9
2017-Sep-11 18:56N 42°21' W 071°02'0 0.0
2017-Sep-11 18:26N 42°21' W 071°02'0 0.0
2017-Sep-11 17:56N 42°21' W 071°02'0 0.0
2017-Sep-11 17:26N 42°21' W 071°02'0 0.0
2017-Sep-11 16:56N 42°21' W 071°02'0 0.0
2017-Sep-11 16:26N 42°21' W 071°02'0 0.0
2017-Sep-11 15:56N 42°21' W 071°02'0 0.0
2017-Sep-11 15:26N 42°21' W 071°02'0 0.0
2017-Sep-11 14:56N 42°21' W 071°02'0 0.0
2017-Sep-11 14:26N 42°21' W 071°02'0 0.0
2017-Sep-11 13:56N 42°21' W 071°02'0 0.0
2017-Sep-11 13:26N 42°21' W 071°02'0 0.0
2017-Sep-11 12:56N 42°21' W 071°02'0 0.0
2017-Sep-11 12:26N 42°21' W 071°02'0 0.0
2017-Sep-11 11:56N 42°21' W 071°02'0 0.5
2017-Sep-11 11:30N 42°21' W 071°02'3 5.1
2017-Sep-11 11:00N 42°20' W 070°58'612.1
2017-Sep-11 10:30N 42°24' W 070°52'510.4
2017-Sep-11 10:00N 42°23' W 070°45'510.0
2017-Sep-11 09:30N 42°22' W 070°38'510.4
2017-Sep-11 09:01N 42°22' W 070°31'611.2
2017-Sep-11 08:31N 42°21' W 070°24'510.4
2017-Sep-11 08:01N 42°21' W 070°17'510.4
2017-Sep-11 07:31N 42°20' W 070°10'611.4
2017-Sep-11 07:00N 42°20' W 070°02'510.4
2017-Sep-11 06:30N 42°16' W 069°57'611.1
2017-Sep-11 06:00N 42°11' W 069°54'510.6
2017-Sep-11 05:30N 42°06' W 069°51'610.9
2017-Sep-11 04:56N 42°01' W 069°47'510.7
2017-Sep-11 04:30N 41°56' W 069°44'1111.9
2017-Sep-11 03:36N 41°47' W 069°37'112.6
2017-Sep-11 03:30N 41°46' W 069°37'612.6
2017-Sep-11 03:00N 41°40' W 069°33'2512.3
2017-Sep-11 01:00N 41°18' W 069°18'59 7.3 350 / 121025.010.8 16.010.415.0
2017-Sep-10 17:00N 40°24' W 069°48'12412.4 360 / 361025.0 5.4 19.013.816.0
2017-Sep-10 07:00N 40°18' W 072°30'4915.3 030 / 281024.0 5.4 17.011.519.0
2017-Sep-10 03:47N 40°24' W 073°34'513.2
2017-Sep-10 03:26N 40°25' W 073°40'613.4
2017-Sep-10 03:00N 40°26' W 073°47'713.5
2017-Sep-10 02:30N 40°29' W 073°55'713.8
2017-Sep-10 02:00N 40°34' W 074°02'713.9
2017-Sep-10 01:30N 40°41' W 074°02'511.0
2017-Sep-10 01:00N 40°46' W 074°00'0 0.8
2017-Sep-10 00:30N 40°46' W 073°60'0 0.0
2017-Sep-10 00:00N 40°46' W 073°60'0 0.0
2017-Sep-09 23:30N 40°46' W 073°60'  

Dump ship's entire track history